createdAt,value
2023-04-27T00:00:00.270Z,73.2305
2023-04-27T00:01:03.167Z,73.2742
2023-04-27T00:02:06.192Z,73.3079
2023-04-27T00:03:09.414Z,73.2834
2023-04-27T00:04:12.164Z,73.3012
2023-04-27T00:05:15.225Z,73.6490
2023-04-27T00:06:17.967Z,74.0950
2023-04-27T00:07:20.878Z,73.8595
2023-04-27T00:08:23.836Z,73.4092
2023-04-27T00:09:26.766Z,73.3288
2023-04-27T00:10:29.796Z,73.4587
2023-04-27T00:11:32.667Z,73.2075
2023-04-27T00:12:35.638Z,73.9849
2023-04-27T00:13:38.599Z,73.7996
2023-04-27T00:14:41.546Z,73.7142
2023-04-27T00:15:44.532Z,74.0610
2023-04-27T00:16:47.582Z,75.2434
2023-04-27T00:17:50.419Z,75.2205
2023-04-27T00:18:53.322Z,75.1211
2023-04-27T00:19:56.270Z,75.5654
2023-04-27T00:20:59.283Z,75.4512
2023-04-27T00:22:02.215Z,75.2905
2023-04-27T00:23:05.121Z,75.7055
2023-04-27T00:24:08.070Z,75.4548
2023-04-27T00:25:11.050Z,75.4732
2023-04-27T00:26:13.977Z,75.5890
2023-04-27T00:27:16.930Z,75.7227
2023-04-27T00:28:19.877Z,76.6125
2023-04-27T00:29:22.831Z,76.5272
2023-04-27T00:30:25.769Z,77.2669
2023-04-27T00:31:28.756Z,78.2287
2023-04-27T00:32:31.700Z,77.7171
2023-04-27T00:33:34.652Z,77.6338
2023-04-27T00:34:37.574Z,78.3334
2023-04-27T00:35:40.725Z,78.3453
2023-04-27T00:36:43.492Z,78.1670
2023-04-27T00:37:46.412Z,77.9769
2023-04-27T00:38:49.371Z,77.5290
2023-04-27T00:39:52.367Z,77.7505
2023-04-27T00:40:55.267Z,77.5980
2023-04-27T00:41:58.247Z,77.5498
2023-04-27T00:43:01.193Z,77.1899
2023-04-27T00:44:04.122Z,78.3305
2023-04-27T00:45:07.081Z,79.3557
2023-04-27T00:46:10.069Z,79.3346
2023-04-27T00:47:13.018Z,79.2644
2023-04-27T00:48:15.994Z,78.0693
2023-04-27T00:49:18.876Z,78.2506
2023-04-27T00:50:21.825Z,78.6553
2023-04-27T00:51:24.780Z,78.9300
2023-04-27T00:52:27.737Z,78.9329
2023-04-27T00:53:30.689Z,79.1219
2023-04-27T00:54:33.678Z,79.0045
2023-04-27T00:55:36.612Z,79.1355
2023-04-27T00:56:39.540Z,79.4200
2023-04-27T00:57:42.505Z,79.5231
2023-04-27T00:58:45.421Z,79.4421
2023-04-27T00:59:48.412Z,79.4076
2023-04-27T01:00:51.341Z,80.0720
2023-04-27T01:01:54.277Z,80.1258
2023-04-27T01:02:57.329Z,79.9904
2023-04-27T01:04:00.298Z,80.1819
2023-04-27T01:05:03.124Z,80.0536
2023-04-27T01:06:06.072Z,79.9289
2023-04-27T01:07:09.196Z,80.1279
2023-04-27T01:08:11.983Z,80.0655
2023-04-27T01:09:15.137Z,80.7108
2023-04-27T01:10:17.871Z,80.1002
2023-04-27T01:11:20.826Z,79.4310
2023-04-27T01:12:23.757Z,79.2760
2023-04-27T01:13:26.757Z,79.0994
2023-04-27T01:14:29.656Z,79.0021
2023-04-27T01:15:32.603Z,79.3763
2023-04-27T01:16:35.602Z,79.8135
2023-04-27T01:17:38.561Z,79.5713
2023-04-27T01:18:41.456Z,79.6110
2023-04-27T01:19:44.478Z,79.2015
2023-04-27T01:20:47.381Z,78.8772
2023-04-27T01:21:50.397Z,78.9978
2023-04-27T01:22:53.248Z,79.1524
2023-04-27T01:23:56.186Z,79.9434
2023-04-27T01:24:59.228Z,80.1453
2023-04-27T01:26:02.095Z,80.4800
2023-04-27T01:27:05.064Z,80.0958
2023-04-27T01:28:08.025Z,79.7739
2023-04-27T01:29:11.235Z,79.9755
2023-04-27T01:30:13.926Z,79.8949
2023-04-27T01:31:16.909Z,79.8496
2023-04-27T01:32:19.806Z,79.3542
2023-04-27T01:33:22.782Z,78.6232
2023-04-27T01:34:25.715Z,78.5726
2023-04-27T01:35:28.641Z,78.8096
2023-04-27T01:36:31.591Z,79.4732
2023-04-27T01:37:34.547Z,79.9746
2023-04-27T01:38:37.499Z,80.6935
2023-04-27T01:39:40.449Z,80.9894
2023-04-27T01:40:43.384Z,80.6748
2023-04-27T01:41:46.371Z,80.4504
2023-04-27T01:42:49.280Z,80.0208
2023-04-27T01:43:52.244Z,79.3031
2023-04-27T01:44:55.205Z,79.2258
2023-04-27T01:45:58.181Z,79.3739
2023-04-27T01:47:01.195Z,79.4420
2023-04-27T01:48:04.069Z,79.0943
2023-04-27T01:49:06.991Z,79.8053
2023-04-27T01:50:09.971Z,80.3707
2023-04-27T01:51:12.940Z,80.3452
2023-04-27T01:52:15.894Z,79.5901
2023-04-27T01:53:18.794Z,79.5761
2023-04-27T01:54:21.739Z,79.8864
2023-04-27T01:55:24.702Z,80.0273
2023-04-27T01:56:27.654Z,80.3345
2023-04-27T01:57:30.613Z,80.1863
2023-04-27T01:58:33.583Z,79.4049
2023-04-27T01:59:36.506Z,79.9223
2023-04-27T02:00:39.439Z,80.7756
2023-04-27T02:01:42.462Z,80.8036
2023-04-27T02:02:45.422Z,80.3230
2023-04-27T02:03:48.415Z,80.4998
2023-04-27T02:04:51.255Z,80.8902
2023-04-27T02:05:54.183Z,80.9245
2023-04-27T02:06:57.141Z,80.6891
2023-04-27T02:08:00.135Z,80.8846
2023-04-27T02:09:03.003Z,80.9064
2023-04-27T02:10:05.999Z,81.2523
2023-04-27T02:11:08.934Z,80.8060
2023-04-27T02:12:11.878Z,80.6321
2023-04-27T02:13:14.795Z,80.8939
2023-04-27T02:14:17.746Z,80.8995
2023-04-27T02:15:20.676Z,80.4854
2023-04-27T02:16:23.673Z,80.9898
2023-04-27T02:17:26.814Z,80.7637
2023-04-27T02:18:29.525Z,80.2044
2023-04-27T02:19:32.491Z,80.2617
2023-04-27T02:20:35.495Z,80.8457
2023-04-27T02:21:38.371Z,80.4003
2023-04-27T02:22:41.317Z,80.5231
2023-04-27T02:23:44.261Z,80.8450
2023-04-27T02:24:47.270Z,81.3293
2023-04-27T02:25:50.142Z,81.6275
2023-04-27T02:26:53.112Z,80.8407
2023-04-27T02:27:56.061Z,81.4205
2023-04-27T02:28:58.993Z,81.0422
2023-04-27T02:30:01.966Z,80.9929
2023-04-27T02:31:04.931Z,81.2051
2023-04-27T02:32:07.834Z,81.3271
2023-04-27T02:33:10.797Z,81.1291
2023-04-27T02:34:13.732Z,80.8855
2023-04-27T02:35:16.719Z,80.2878
2023-04-27T02:36:19.714Z,81.1702
2023-04-27T02:37:22.691Z,80.8529
2023-04-27T02:38:25.585Z,80.9078
2023-04-27T02:39:28.545Z,80.5795
2023-04-27T02:40:31.513Z,80.0457
2023-04-27T02:41:34.457Z,80.8328
2023-04-27T02:42:37.392Z,80.7888
2023-04-27T02:43:40.342Z,80.0437
2023-04-27T02:44:43.314Z,79.7223
2023-04-27T02:45:46.229Z,80.4596
2023-04-27T02:46:49.224Z,80.6854
2023-04-27T02:47:52.172Z,80.3598
2023-04-27T02:48:55.112Z,80.5561
2023-04-27T02:49:58.039Z,80.2815
2023-04-27T02:51:00.968Z,80.6205
2023-04-27T02:52:03.944Z,80.4235
2023-04-27T02:53:06.875Z,80.3140
2023-04-27T02:54:09.821Z,80.9888
2023-04-27T02:55:12.769Z,80.7499
2023-04-27T02:56:15.738Z,80.3749
2023-04-27T02:57:18.664Z,81.2404
2023-04-27T02:58:21.609Z,81.2267
2023-04-27T02:59:24.556Z,81.1506
2023-04-27T03:00:27.508Z,81.2106
2023-04-27T03:01:30.510Z,81.2290
2023-04-27T03:02:33.512Z,81.0306
2023-04-27T03:03:36.422Z,81.2161
2023-04-27T03:04:39.464Z,80.8643
2023-04-27T03:05:42.246Z,81.0556
2023-04-27T03:06:45.204Z,80.9172
2023-04-27T03:07:48.199Z,80.8544
2023-04-27T03:08:51.098Z,80.6271
2023-04-27T03:09:54.033Z,80.6878
2023-04-27T03:10:56.996Z,80.4932
2023-04-27T03:12:00.058Z,80.6320
2023-04-27T03:13:02.902Z,80.5518
2023-04-27T03:14:05.842Z,81.0167
2023-04-27T03:15:08.792Z,80.6979
2023-04-27T03:16:11.827Z,80.0690
2023-04-27T03:17:14.679Z,80.2390
2023-04-27T03:18:17.699Z,80.1811
2023-04-27T03:19:20.575Z,79.9796
2023-04-27T03:20:23.541Z,80.1877
2023-04-27T03:21:26.472Z,80.4512
2023-04-27T03:22:29.468Z,81.1884
2023-04-27T03:23:32.373Z,81.0565
2023-04-27T03:24:35.324Z,81.3458
2023-04-27T03:25:38.266Z,81.5608
2023-04-27T03:26:41.272Z,81.8386
2023-04-27T03:27:44.169Z,81.0536
2023-04-27T03:28:47.103Z,81.1917
2023-04-27T03:29:50.068Z,81.4757
2023-04-27T03:30:53.009Z,81.0440
2023-04-27T03:31:55.973Z,80.8665
2023-04-27T03:32:58.963Z,80.6543
2023-04-27T03:34:01.861Z,80.6937
2023-04-27T03:35:04.790Z,80.8524
2023-04-27T03:36:07.780Z,80.6475
2023-04-27T03:37:10.740Z,80.5683
2023-04-27T03:38:13.683Z,80.9743
2023-04-27T03:39:16.654Z,80.9951
2023-04-27T03:40:19.547Z,80.7620
2023-04-27T03:41:22.484Z,80.6458
2023-04-27T03:42:25.626Z,79.7974
2023-04-27T03:43:28.408Z,80.3444
2023-04-27T03:44:31.374Z,80.0919
2023-04-27T03:45:34.285Z,79.4894
2023-04-27T03:46:37.248Z,79.3527
2023-04-27T03:47:40.261Z,79.7976
2023-04-27T03:48:43.180Z,80.2763
2023-04-27T03:49:46.110Z,80.3122
2023-04-27T03:50:49.036Z,80.6404
2023-04-27T03:51:51.981Z,80.7596
2023-04-27T03:52:54.946Z,80.7911
2023-04-27T03:53:57.861Z,81.0903
2023-04-27T03:55:00.876Z,81.2746
2023-04-27T03:56:03.756Z,81.3341
2023-04-27T03:57:06.731Z,80.8452
2023-04-27T03:58:09.706Z,80.7537
2023-04-27T03:59:12.950Z,80.9333
2023-04-27T04:00:15.571Z,81.0505
2023-04-27T04:01:18.503Z,81.2166
2023-04-27T04:02:21.520Z,81.4093
2023-04-27T04:03:24.534Z,82.2191
2023-04-27T04:04:27.514Z,81.4733
2023-04-27T04:05:30.353Z,81.3646
2023-04-27T04:06:33.231Z,81.0931
2023-04-27T04:07:36.206Z,80.8735
2023-04-27T04:08:39.129Z,80.9591
2023-04-27T04:09:42.160Z,81.5731
2023-04-27T04:10:45.070Z,81.2539
2023-04-27T04:11:48.055Z,81.2681
2023-04-27T04:12:50.971Z,81.1793
2023-04-27T04:13:53.967Z,81.1430
2023-04-27T04:14:56.845Z,81.1894
2023-04-27T04:15:59.892Z,81.0913
2023-04-27T04:17:02.829Z,80.7472
2023-04-27T04:18:05.779Z,80.5443
2023-04-27T04:19:08.670Z,80.4341
2023-04-27T04:20:11.609Z,79.5184
2023-04-27T04:21:14.875Z,79.9947
2023-04-27T04:22:17.469Z,80.0444
2023-04-27T04:23:20.443Z,79.9447
2023-04-27T04:24:23.372Z,79.9332
2023-04-27T04:25:26.360Z,80.2677
2023-04-27T04:26:29.342Z,80.3487
2023-04-27T04:27:32.278Z,79.9981
2023-04-27T04:28:35.178Z,80.1928
2023-04-27T04:29:38.104Z,79.7331
2023-04-27T04:30:41.093Z,79.7064
2023-04-27T04:31:44.060Z,79.8958
2023-04-27T04:32:47.049Z,80.5636
2023-04-27T04:33:49.945Z,80.0335
2023-04-27T04:34:52.863Z,80.5919
2023-04-27T04:35:55.819Z,81.2705
2023-04-27T04:36:58.783Z,81.0195
2023-04-27T04:38:01.757Z,80.5653
2023-04-27T04:39:04.689Z,80.4196
2023-04-27T04:40:07.602Z,80.1484
2023-04-27T04:41:10.576Z,80.2710
2023-04-27T04:42:13.492Z,80.5020
2023-04-27T04:43:16.489Z,80.4505
2023-04-27T04:44:19.413Z,80.4472
2023-04-27T04:45:22.400Z,80.8862
2023-04-27T04:46:25.337Z,81.1305
2023-04-27T04:47:28.315Z,81.3798
2023-04-27T04:48:31.218Z,81.1110
2023-04-27T04:49:34.265Z,80.2922
2023-04-27T04:50:37.096Z,80.3025
2023-04-27T04:51:40.039Z,80.8435
2023-04-27T04:52:42.999Z,80.8733
2023-04-27T04:53:46.057Z,81.1442
2023-04-27T04:54:48.923Z,81.2802
2023-04-27T04:55:51.852Z,80.4477
2023-04-27T04:56:54.769Z,80.2726
2023-04-27T04:57:57.742Z,80.5614
2023-04-27T04:59:00.700Z,80.5064
2023-04-27T05:00:03.677Z,80.3290
2023-04-27T05:01:06.828Z,80.1050
2023-04-27T05:02:09.545Z,79.9903
2023-04-27T05:03:15.211Z,80.2634
2023-04-27T05:04:15.794Z,80.6975
2023-04-27T05:05:18.368Z,81.2529
2023-04-27T05:06:21.328Z,81.0972
2023-04-27T05:07:25.173Z,81.7691
2023-04-27T05:08:27.249Z,81.8850
2023-04-27T05:09:30.187Z,81.2359
2023-04-27T05:10:33.120Z,81.5759
2023-04-27T05:11:36.034Z,80.9895
2023-04-27T05:12:38.990Z,80.7002
2023-04-27T05:13:41.949Z,80.9092
2023-04-27T05:14:44.904Z,81.4872
2023-04-27T05:15:47.858Z,81.2168
2023-04-27T05:16:50.766Z,81.0495
2023-04-27T05:17:53.820Z,80.9751
2023-04-27T05:18:56.676Z,80.7113
2023-04-27T05:19:59.637Z,80.5511
2023-04-27T05:21:02.561Z,80.9089
2023-04-27T05:22:05.510Z,80.7006
2023-04-27T05:23:08.486Z,80.8013
2023-04-27T05:24:11.403Z,80.2939
2023-04-27T05:25:14.528Z,80.9905
2023-04-27T05:26:17.290Z,81.3341
2023-04-27T05:27:20.261Z,81.2145
2023-04-27T05:28:23.192Z,81.5468
2023-04-27T05:29:26.164Z,82.4045
2023-04-27T05:30:29.114Z,82.7455
2023-04-27T05:31:32.049Z,82.6500
2023-04-27T05:32:35.040Z,81.9070
2023-04-27T05:33:37.930Z,81.5474
2023-04-27T05:34:40.979Z,81.8702
2023-04-27T05:35:43.830Z,81.6918
2023-04-27T05:36:46.795Z,81.6380
2023-04-27T05:37:49.743Z,81.6141
2023-04-27T05:38:52.676Z,81.6456
2023-04-27T05:39:55.636Z,81.2419
2023-04-27T05:40:58.563Z,80.7689
2023-04-27T05:42:01.604Z,80.3802
2023-04-27T05:43:04.450Z,80.7756
2023-04-27T05:44:07.429Z,80.9506
2023-04-27T05:45:10.343Z,80.9168
2023-04-27T05:46:13.389Z,80.2917
2023-04-27T05:47:16.258Z,81.0627
2023-04-27T05:48:19.181Z,81.2998
2023-04-27T05:49:22.129Z,81.6739
2023-04-27T05:50:25.079Z,81.4434
2023-04-27T05:51:28.013Z,80.7969
2023-04-27T05:52:31.048Z,80.6403
2023-04-27T05:53:33.914Z,80.2730
2023-04-27T05:54:36.861Z,80.4111
2023-04-27T05:55:39.803Z,80.6883
2023-04-27T05:56:42.771Z,80.1500
2023-04-27T05:58:48.708Z,80.4716
2023-04-27T05:59:51.600Z,80.7092
2023-04-27T06:00:54.689Z,80.6854
2023-04-27T06:01:57.637Z,80.6043
2023-04-27T06:03:00.711Z,80.7006
2023-04-27T06:04:03.526Z,80.8451
2023-04-27T06:05:06.430Z,80.4444
2023-04-27T06:06:09.293Z,80.7403
2023-04-27T06:07:12.277Z,81.0567
2023-04-27T06:08:15.188Z,80.3929
2023-04-27T06:09:18.151Z,80.4666
2023-04-27T06:10:21.084Z,80.1866
2023-04-27T06:11:24.056Z,80.1628
2023-04-27T06:12:26.994Z,79.5485
2023-04-27T06:13:29.923Z,79.7670
2023-04-27T06:14:32.872Z,79.7490
2023-04-27T06:15:35.834Z,79.2581
2023-04-27T06:16:39.016Z,78.5980
2023-04-27T06:17:41.806Z,78.3104
2023-04-27T06:18:44.658Z,78.5294
2023-04-27T06:19:47.605Z,79.6337
2023-04-27T06:20:50.550Z,78.9237
2023-04-27T06:21:53.517Z,78.6522
2023-04-27T06:22:56.432Z,78.8903
2023-04-27T06:23:59.439Z,78.5855
2023-04-27T06:25:02.363Z,78.3937
2023-04-27T06:26:05.270Z,78.1923
2023-04-27T06:27:08.227Z,78.1283
2023-04-27T06:28:11.180Z,78.1438
2023-04-27T06:29:14.374Z,78.0162
2023-04-27T06:30:17.055Z,78.3179
2023-04-27T06:31:20.077Z,77.5340
2023-04-27T06:32:22.993Z,77.6577
2023-04-27T06:33:25.917Z,77.2780
2023-04-27T06:34:28.852Z,77.7230
2023-04-27T06:35:31.798Z,77.6097
2023-04-27T06:36:34.750Z,77.6975
2023-04-27T06:37:37.694Z,77.6169
2023-04-27T06:38:40.652Z,77.7803
2023-04-27T06:39:43.594Z,78.0911
2023-04-27T06:40:46.536Z,77.5859
2023-04-27T06:41:49.492Z,78.0744
2023-04-27T06:42:52.461Z,77.9803
2023-04-27T06:43:57.472Z,77.6737
2023-04-27T06:44:58.396Z,77.9162
2023-04-27T06:46:01.449Z,79.1449
2023-04-27T06:47:04.288Z,78.7154
2023-04-27T06:48:07.388Z,78.4459
2023-04-27T06:49:10.193Z,77.9216
2023-04-27T06:50:13.147Z,77.5307
2023-04-27T06:51:16.069Z,77.3151
2023-04-27T06:52:19.007Z,76.9780
2023-04-27T06:53:21.944Z,77.0743
2023-04-27T06:54:24.912Z,77.0048
2023-04-27T06:55:27.839Z,76.6933
2023-04-27T06:56:30.797Z,75.7945
2023-04-27T06:57:33.734Z,75.2859
2023-04-27T06:58:36.711Z,75.9072
2023-04-27T06:59:39.635Z,76.1226
2023-04-27T07:00:42.663Z,76.0308
2023-04-27T07:01:45.543Z,75.8323
2023-04-27T07:02:48.518Z,75.7884
2023-04-27T07:03:51.936Z,75.7495
2023-04-27T07:04:54.436Z,76.1381
2023-04-27T07:05:57.294Z,75.9903
2023-04-27T07:07:00.242Z,75.3253
2023-04-27T07:08:06.161Z,74.8761
2023-04-27T07:09:16.359Z,74.9669
2023-04-27T07:10:09.098Z,74.8201
2023-04-27T07:11:12.057Z,74.3817
2023-04-27T07:12:14.977Z,74.0789
2023-04-27T07:13:17.935Z,74.1247
2023-04-27T07:14:20.868Z,73.8331
2023-04-27T07:15:23.871Z,74.1267
2023-04-27T07:16:26.888Z,73.9240
2023-04-27T07:17:29.736Z,73.2579
2023-04-27T07:18:32.648Z,72.8831
2023-04-27T07:19:35.597Z,72.5825
2023-04-27T07:20:38.520Z,71.1527
2023-04-27T07:21:41.501Z,70.6479
2023-04-27T07:22:44.453Z,70.5375
2023-04-27T07:23:47.368Z,70.1366
2023-04-27T07:24:50.339Z,70.6893
2023-04-27T07:25:53.298Z,71.7145
2023-04-27T07:26:56.241Z,71.3234
2023-04-27T07:27:59.208Z,70.6353
2023-04-27T07:29:11.132Z,69.1120
2023-04-27T07:30:05.122Z,69.3203
2023-04-27T07:31:08.049Z,69.7160
2023-04-27T07:32:11.084Z,66.5484
2023-04-27T07:33:13.924Z,67.5019
2023-04-27T07:34:16.880Z,66.5573
2023-04-27T07:35:19.836Z,65.5059
2023-04-27T07:36:22.791Z,66.1675
2023-04-27T07:37:26.038Z,66.5307
2023-04-27T07:38:28.699Z,66.1610
2023-04-27T07:39:31.644Z,66.6438
2023-04-27T07:40:34.619Z,68.0314
2023-04-27T07:41:37.695Z,66.5580
2023-04-27T07:42:40.514Z,63.9922
2023-04-27T07:43:43.449Z,64.4448
2023-04-27T07:44:46.415Z,64.8814
2023-04-27T07:45:49.407Z,65.4840
2023-04-27T07:46:52.323Z,64.2001
2023-04-27T07:47:57.575Z,63.8903
2023-04-27T07:48:58.256Z,64.5058
2023-04-27T07:50:01.177Z,63.4275
2023-04-27T07:51:04.131Z,62.2874
2023-04-27T07:52:07.103Z,61.9778
2023-04-27T07:53:10.033Z,63.1398
2023-04-27T07:54:13.001Z,63.6339
2023-04-27T07:55:15.941Z,62.1068
2023-04-27T07:56:18.885Z,62.1503
2023-04-27T07:57:22.009Z,62.9667
2023-04-27T07:58:24.794Z,62.5370
2023-04-27T07:59:27.751Z,61.3893
2023-04-27T08:00:30.767Z,62.2620
2023-04-27T08:01:33.665Z,60.4458
2023-04-27T08:02:36.775Z,60.2215
2023-04-27T08:03:39.897Z,59.1996
2023-04-27T08:04:42.818Z,58.6705
2023-04-27T08:05:45.674Z,58.5343
2023-04-27T08:06:48.934Z,58.1434
2023-04-27T08:07:51.848Z,59.1914
2023-04-27T08:08:54.431Z,60.1025
2023-04-27T08:09:57.282Z,58.3026
2023-04-27T08:11:00.222Z,58.3879
2023-04-27T08:12:03.184Z,57.5733
2023-04-27T08:13:06.122Z,57.8577
2023-04-27T08:14:09.126Z,58.6523
2023-04-27T08:15:12.044Z,58.4979
2023-04-27T08:16:15.003Z,59.4360
2023-04-27T08:17:17.941Z,58.6644
2023-04-27T08:18:20.871Z,58.1757
2023-04-27T08:19:23.834Z,58.6908
2023-04-27T08:20:26.796Z,58.3447
2023-04-27T08:21:29.714Z,59.0221
2023-04-27T08:22:32.664Z,57.4338
2023-04-27T08:23:35.635Z,56.8866
2023-04-27T08:24:38.575Z,56.9234
2023-04-27T08:25:41.499Z,57.1204
2023-04-27T08:26:44.429Z,56.8265
2023-04-27T08:27:47.378Z,55.1494
2023-04-27T08:28:50.365Z,53.6904
2023-04-27T08:29:53.255Z,53.3040
2023-04-27T08:30:56.227Z,51.4211
2023-04-27T08:31:59.263Z,52.3740
2023-04-27T08:33:02.213Z,52.0259
2023-04-27T08:34:05.058Z,52.3827
2023-04-27T08:35:07.989Z,53.2677
2023-04-27T08:36:10.931Z,56.0516
2023-04-27T08:37:14.094Z,55.6710
2023-04-27T08:38:16.837Z,54.5233
2023-04-27T08:39:19.797Z,54.7298
2023-04-27T08:40:22.906Z,52.8935
2023-04-27T08:41:25.671Z,51.2364
2023-04-27T08:42:28.646Z,52.8689
2023-04-27T08:43:31.584Z,55.5603
2023-04-27T08:44:34.501Z,55.3262
2023-04-27T08:45:37.447Z,53.7331
2023-04-27T08:46:40.408Z,54.7748
2023-04-27T08:47:44.139Z,54.1456
2023-04-27T08:48:46.276Z,53.1103
2023-04-27T08:49:49.269Z,53.0863
2023-04-27T08:50:52.222Z,53.3569
2023-04-27T08:51:55.125Z,53.1521
2023-04-27T08:52:58.081Z,52.5534
2023-04-27T08:54:01.012Z,52.8269
2023-04-27T08:55:03.975Z,52.4335
2023-04-27T08:56:06.970Z,51.0228
2023-04-27T08:57:09.850Z,50.9915
2023-04-27T08:58:12.824Z,50.9591
2023-04-27T08:59:16.541Z,50.1857
2023-04-27T09:00:18.735Z,51.1609
2023-04-27T09:01:21.917Z,50.6622
2023-04-27T09:02:24.621Z,49.4776
2023-04-27T09:03:27.678Z,49.7928
2023-04-27T09:04:30.599Z,50.1285
2023-04-27T09:05:33.529Z,49.2461
2023-04-27T09:06:36.452Z,49.2068
2023-04-27T09:07:39.327Z,49.5583
2023-04-27T09:08:42.276Z,48.7353
2023-04-27T09:09:45.272Z,47.9505
2023-04-27T09:10:48.183Z,48.5048
2023-04-27T09:11:51.127Z,47.5516
2023-04-27T09:12:54.084Z,47.1655
2023-04-27T09:13:57.046Z,46.6434
2023-04-27T09:14:59.975Z,48.0571
2023-04-27T09:16:02.942Z,49.7988
2023-04-27T09:17:05.868Z,48.4414
2023-04-27T09:18:08.871Z,46.8751
2023-04-27T09:19:11.965Z,45.2370
2023-04-27T09:20:14.699Z,43.9513
2023-04-27T09:21:17.689Z,45.7416
2023-04-27T09:22:20.640Z,45.6465
2023-04-27T09:23:23.564Z,45.1834
2023-04-27T09:24:26.501Z,45.3949
2023-04-27T09:25:29.484Z,43.8182
2023-04-27T09:26:32.415Z,44.3636
2023-04-27T09:27:35.366Z,45.5362
2023-04-27T09:28:38.326Z,45.3961
2023-04-27T09:29:41.248Z,45.0550
2023-04-27T09:30:44.179Z,45.4519
2023-04-27T09:31:47.215Z,44.5393
2023-04-27T09:32:50.123Z,43.8990
2023-04-27T09:33:53.053Z,42.9383
2023-04-27T09:34:55.982Z,44.2251
2023-04-27T09:35:58.930Z,43.0464
2023-04-27T09:37:01.873Z,43.5652
2023-04-27T09:38:04.892Z,42.5420
2023-04-27T09:39:07.812Z,42.3436
2023-04-27T09:40:10.718Z,41.8485
2023-04-27T09:41:13.672Z,43.1081
2023-04-27T09:42:16.653Z,44.0524
2023-04-27T09:43:19.554Z,42.2654
2023-04-27T09:44:22.535Z,42.1717
2023-04-27T09:45:25.664Z,42.5384
2023-04-27T09:46:28.532Z,42.9510
2023-04-27T09:47:31.390Z,41.1707
2023-04-27T09:48:34.352Z,41.3913
2023-04-27T09:49:37.286Z,41.9434
2023-04-27T09:50:40.220Z,43.1814
2023-04-27T09:51:43.169Z,43.8614
2023-04-27T09:52:46.239Z,43.3648
2023-04-27T09:53:49.475Z,42.9244
2023-04-27T09:54:52.027Z,42.8283
2023-04-27T09:55:54.971Z,43.1912
2023-04-27T09:56:57.932Z,41.8501
2023-04-27T09:58:00.883Z,41.0580
2023-04-27T09:59:03.847Z,41.9324
2023-04-27T10:00:06.826Z,42.0071
2023-04-27T10:01:09.795Z,40.8806
2023-04-27T10:02:24.278Z,40.2274
2023-04-27T10:03:15.729Z,38.8132
2023-04-27T10:04:18.745Z,38.6860
2023-04-27T10:05:21.613Z,39.2983
2023-04-27T10:06:24.546Z,41.0922
2023-04-27T10:07:27.470Z,41.7456
2023-04-27T10:08:30.409Z,42.2318
2023-04-27T10:09:33.385Z,41.2721
2023-04-27T10:10:36.399Z,41.6906
2023-04-27T10:11:39.306Z,41.5698
2023-04-27T10:12:42.219Z,41.3167
2023-04-27T10:13:45.169Z,39.4229
2023-04-27T10:14:48.123Z,37.5917
2023-04-27T10:15:51.076Z,38.5703
2023-04-27T10:16:54.113Z,37.9585
2023-04-27T10:17:57.182Z,39.2103
2023-04-27T10:18:59.901Z,37.7496
2023-04-27T10:20:02.860Z,37.5880
2023-04-27T10:21:05.798Z,40.1727
2023-04-27T10:22:08.746Z,39.9870
2023-04-27T10:23:11.736Z,40.2742
2023-04-27T10:24:14.647Z,40.7843
2023-04-27T10:25:17.596Z,40.4242
2023-04-27T10:26:20.540Z,39.1455
2023-04-27T10:27:23.503Z,39.7839
2023-04-27T10:28:26.445Z,39.6035
2023-04-27T10:29:29.417Z,38.9687
2023-04-27T10:30:32.458Z,39.1232
2023-04-27T10:31:35.310Z,39.0989
2023-04-27T10:32:38.282Z,38.0736
2023-04-27T10:33:41.211Z,38.4787
2023-04-27T10:34:44.162Z,37.4880
2023-04-27T10:35:47.092Z,37.2217
2023-04-27T10:36:50.031Z,38.2847
2023-04-27T10:37:52.964Z,36.8112
2023-04-27T10:38:55.970Z,36.4347
2023-04-27T10:39:58.898Z,37.6803
2023-04-27T10:41:01.886Z,37.4936
2023-04-27T10:42:04.765Z,37.2596
2023-04-27T10:43:07.735Z,37.4764
2023-04-27T10:44:10.675Z,38.7603
2023-04-27T10:45:13.644Z,38.1457
2023-04-27T10:46:16.677Z,37.3812
2023-04-27T10:47:19.528Z,36.7854
2023-04-27T10:48:22.645Z,37.7579
2023-04-27T10:49:25.434Z,37.2090
2023-04-27T10:50:28.405Z,36.9612
2023-04-27T10:51:31.403Z,36.5081
2023-04-27T10:52:34.387Z,35.7761
2023-04-27T10:53:37.336Z,35.4926
2023-04-27T10:54:40.287Z,35.0171
2023-04-27T10:55:43.269Z,34.3261
2023-04-27T10:56:46.211Z,36.1641
2023-04-27T10:57:49.152Z,35.6875
2023-04-27T10:58:52.181Z,33.6226
2023-04-27T10:59:55.114Z,35.8706
2023-04-27T11:00:58.045Z,36.5152
2023-04-27T11:02:01.009Z,37.0213
2023-04-27T11:03:04.068Z,35.3995
2023-04-27T11:04:06.921Z,35.9680
2023-04-27T11:05:09.959Z,36.0500
2023-04-27T11:06:12.849Z,35.7049
2023-04-27T11:07:15.816Z,35.0626
2023-04-27T11:08:18.755Z,35.4377
2023-04-27T11:09:21.760Z,36.0960
2023-04-27T11:10:24.765Z,34.6659
2023-04-27T11:11:27.622Z,35.1675
2023-04-27T11:12:30.540Z,33.7796
2023-04-27T11:13:33.545Z,34.5336
2023-04-27T11:14:36.467Z,35.0699
2023-04-27T11:15:39.480Z,32.5381
2023-04-27T11:16:42.488Z,32.7570
2023-04-27T11:17:45.337Z,33.1568
2023-04-27T11:18:48.278Z,32.3842
2023-04-27T11:19:51.231Z,31.8506
2023-04-27T11:20:54.212Z,33.8389
2023-04-27T11:21:57.155Z,32.9488
2023-04-27T11:23:00.127Z,35.6492
2023-04-27T11:24:03.069Z,36.2914
2023-04-27T11:25:06.021Z,35.6958
2023-04-27T11:26:09.065Z,35.7432
2023-04-27T11:27:11.947Z,35.7342
2023-04-27T11:28:14.907Z,35.3172
2023-04-27T11:29:18.096Z,35.2846
2023-04-27T11:30:20.817Z,35.2111
2023-04-27T11:31:23.900Z,34.1416
2023-04-27T11:32:26.752Z,35.2053
2023-04-27T11:33:29.684Z,35.0950
2023-04-27T11:34:32.651Z,35.0704
2023-04-27T11:35:35.604Z,34.8055
2023-04-27T11:36:38.624Z,36.2284
2023-04-27T11:37:41.524Z,35.5473
2023-04-27T11:38:44.619Z,35.4469
2023-04-27T11:39:47.462Z,34.3781
2023-04-27T11:40:50.409Z,33.3378
2023-04-27T11:41:53.378Z,34.9395
2023-04-27T11:42:56.325Z,34.7685
2023-04-27T11:43:59.272Z,35.3151
2023-04-27T11:45:02.249Z,35.6258
2023-04-27T11:46:05.194Z,33.6105
2023-04-27T11:47:08.213Z,32.9243
2023-04-27T11:48:11.191Z,34.9016
2023-04-27T11:49:14.340Z,36.3423
2023-04-27T11:50:17.045Z,35.0024
2023-04-27T11:51:20.007Z,33.6306
2023-04-27T11:52:23.015Z,34.4839
2023-04-27T11:53:26.017Z,33.4039
2023-04-27T11:54:28.977Z,34.3931
2023-04-27T11:55:31.855Z,34.7413
2023-04-27T11:56:34.807Z,33.5328
2023-04-27T11:57:37.775Z,33.3782
2023-04-27T11:58:40.892Z,32.8698
2023-04-27T11:59:43.797Z,33.4627
2023-04-27T12:00:46.665Z,34.8003
2023-04-27T12:01:49.637Z,35.5842
2023-04-27T12:02:52.750Z,35.5552
2023-04-27T12:03:55.649Z,35.6547
2023-04-27T12:04:58.672Z,35.0489
2023-04-27T12:06:16.151Z,36.0464
2023-04-27T12:07:04.588Z,36.6256
2023-04-27T12:08:07.400Z,35.8741
2023-04-27T12:09:10.342Z,36.1194
2023-04-27T12:10:13.478Z,35.0947
2023-04-27T12:11:16.286Z,36.2816
2023-04-27T12:12:19.322Z,35.2304
2023-04-27T12:13:22.209Z,35.0063
2023-04-27T12:14:25.157Z,35.9932
2023-04-27T12:15:28.240Z,35.4969
2023-04-27T12:16:31.091Z,34.8744
2023-04-27T12:17:34.096Z,35.6671
2023-04-27T12:18:37.012Z,32.4862
2023-04-27T12:19:39.964Z,33.2954
2023-04-27T12:20:42.937Z,33.2719
2023-04-27T12:21:45.950Z,34.5630
2023-04-27T12:22:48.823Z,34.9975
2023-04-27T12:23:51.775Z,35.4007
2023-04-27T12:24:54.800Z,35.2817
2023-04-27T12:25:57.739Z,34.7399
2023-04-27T12:27:00.659Z,35.1704
2023-04-27T12:28:03.634Z,35.4300
2023-04-27T12:29:06.591Z,36.3990
2023-04-27T12:30:09.548Z,36.7582
2023-04-27T12:31:12.586Z,36.0538
2023-04-27T12:32:15.470Z,35.6920
2023-04-27T12:33:18.450Z,34.5018
2023-04-27T12:34:21.361Z,34.9591
2023-04-27T12:35:24.320Z,33.5883
2023-04-27T12:36:27.324Z,33.8440
2023-04-27T12:37:30.253Z,34.6713
2023-04-27T12:38:33.179Z,35.5023
2023-04-27T12:39:36.133Z,34.0546
2023-04-27T12:40:39.085Z,34.8315
2023-04-27T12:41:42.034Z,34.8038